ADDS METAR Data INFO
IDs: Format: Raw Decoded Include TAF

Data at: 0140 UTC 26 Feb 2018

KGLR 260053Z AUTO 23018G27KT 10SM OVC039 00/M06 A2979 RMK AO2 PK WND 22029/0014 SLP101 T00001056
KGLR 252353Z AUTO 24013G26KT 10SM BKN043 00/M06 A2976 RMK AO2 PK WND 22031/2256 SLP090 T00001061 10017 21006 53037
KGLR 252253Z AUTO 24020G30KT 10SM CLR 00/M07 A2971 RMK AO2 PK WND 25037/2155 SLP075 T00001067
KGLR 252153Z AUTO 24027G37KT 10SM FEW042 01/M07 A2968 RMK AO2 PK WND 24037/2151 SLP064 T00111067
KGLR 252053Z AUTO 24022G27KT 10SM CLR 01/M05 A2964 RMK AO2 PK WND 22035/2018 SLP052 T00111050 53020
KGLR 251953Z AUTO 24024G31KT 10SM FEW036 01/M04 A2961 RMK AO2 PK WND 23037/1918 SLP041 T00111039
KGLR 251853Z AUTO 24024G32KT 10SM BKN033 00/M04 A2960 RMK AO2 PK WND 24036/1816 SLP036 T00001039
KGLR 251840Z AUTO 24022G35KT 10SM BKN031 00/M04 A2959 RMK AO2 PK WND 24036/1816 T00001039
KGLR 251753Z AUTO 25017G34KT 10SM BKN026 BKN033 M01/M04 A2958 RMK AO2 PK WND 23037/1716 SLP032 60001 T10111039 10022 21017 51039
KGLR 251653Z AUTO 23023G36KT 10SM BKN023 OVC028 M02/M04 A2955 RMK AO2 PK WND 25040/1628 SLP023 T10171039
KGLR 251553Z AUTO 24023G38KT 10SM OVC022 M02/M03 A2950 RMK AO2 PK WND 26044/1538 SLP006 T10171033
KGLR 251453Z AUTO 24029G38KT 9SM OVC019 M01/M02 A2946 RMK AO2 PK WND 25043/1356 SLP991 60001 T10111017 51051
KGLR 251405Z AUTO 24033G43KT 10SM OVC018 00/00 A2943 RMK AO2 PK WND 25043/1356 T00000000
KGLR 251353Z AUTO 24027G40KT 10SM BKN014 OVC021 00/00 A2942 RMK AO2 PK WND 23042/1340 SLP976 T00000000
KGLR 251334Z AUTO 25025G33KT 10SM OVC014 01/01 A2940 RMK AO2 PK WND 25040/1312 T00060006
KGLR 251301Z AUTO 24028G38KT 9SM BKN016 OVC021 01/01 A2938 RMK AO2 PK WND 24038/1300 PRESRR T00110011
KGLR 251253Z AUTO 25027G40KT 10SM BKN014 OVC020 01/01 A2937 RMK AO2 PK WND 25040/1206 RAE09 PRESRR SLP958 P0001 T00110011
KGLR 251227Z AUTO 24025G40KT 10SM OVC010 02/02 A2934 RMK AO2 PK WND 25040/1206 RAE09 P0001 T00170017
KGLR 251153Z AUTO 24023G29KT 5SM -RA BR OVC007 02/02 A2930 RMK AO2 PK WND 24029/1151 RAB03E22B32UPB22E32 CIG 005V012 SLP935 P0000 60015 70015 I6011 T00220022 10022 21011 55015
KGLR 251123Z AUTO 21013G19KT 4SM UP BR OVC005 02/02 A2929 RMK AO2 RAB03E22UPB22 CIG 004V009 P0000 T00170017
KGLR 251114Z AUTO 20009KT 2 1/2SM -RA BR OVC005 01/01 A2929 RMK AO2 RAB03 P0000 T00110011
KGLR 251053Z AUTO 18013KT 9SM OVC007 01/01 A2929 RMK AO2 RAE45 CIG 005V010 SLP929 P0001 T00110011
KGLR 250953Z AUTO 17010KT 5SM RA BR OVC005 01/01 A2932 RMK AO2 RAB05FZRAE05 CIG 004V009 SLP941 P0004 I1000 T00060006
KGLR 250905Z AUTO 14017G22KT 3SM -RA BR OVC006 01/01 A2934 RMK AO2 RAB05FZRAE05 P0000 I1000 T00060006
KGLR 250853Z AUTO 13016G23KT 2SM -FZRA BR OVC006 00/00 A2935 RMK AO2 PK WND 12026/0754 UPB29E35FZRAE29B35 PRESFR SLP951 P0004 60010 I1001 I3011 T00000000 58058
KGLR 250845Z AUTO 14016G23KT 2SM -FZRA BR OVC006 00/00 A2936 RMK AO2 PK WND 12026/0754 UPB29E35FZRAE29B35 P0003 I1001 T00000000
KGLR 250819Z AUTO 14014G22KT 4SM -FZRA BR OVC006 00/00 A2939 RMK AO2 PK WND 12026/0754 P0002 I1000 T00000000
KGLR 250803Z AUTO 13014G26KT 2 1/2SM -FZRA BR OVC006 00/00 A2940 RMK AO2 PK WND 12026/0754 PRESFR P0001 I1000 T00000000
KGLR 250753Z AUTO 12014G26KT 3SM -FZRA BR OVC006 00/00 A2942 RMK AO2 PK WND 14026/0737 UPB26E52FZRAE26B52 PRESFR SLP974 P0004 I1006 T00000000
KGLR 250726Z AUTO 13013G25KT 3SM UP BR OVC006 00/00 A2947 RMK AO2 UPB26FZRAE26 CIG 005V009 P0004 I1005 T00000000
KGLR 250715Z AUTO 12015G22KT 2 1/2SM -FZRA BR OVC007 00/00 A2948 RMK AO2 PRESFR P0003 I1005 T00000000
KGLR 250653Z AUTO 12015G22KT 4SM -FZRA BR OVC008 M01/M01 A2953 RMK AO2 PK WND 12026/0616 UPE10FZRAB10 CIG 006V010 PRESFR SLP012 P0002 I1004 T10061006
KGLR 250640Z AUTO 12013G22KT 3SM FZRA BR OVC008 M01/M01 A2955 RMK AO2 PK WND 12026/0616 UPE10FZRAB10 CIG 006V011 P0001 I1002 T10061006
KGLR 250616Z AUTO 11014G26KT 4SM -FZRA BR BKN010 OVC026 M01/M01 A2957 RMK AO2 PK WND 12026/0616 UPE10FZRAB10 PRESFR P0000 I1001 T10061011
KGLR 250553Z AUTO 11010G20KT 070V130 9SM UP OVC010 M01/M02 A2962 RMK AO2 UPB26 PRESFR SLP043 P0000 60000 T10111017 10006 21022 58081
KGLR 250453Z AUTO 11009G23KT 070V140 10SM OVC011 M02/M03 A2971 RMK AO2 PK WND 13027/0428 PRESFR SLP077 T10171028 400281028
KGLR 250353Z AUTO 12015G19KT 10SM BKN014 OVC090 M02/M03 A2979 RMK AO2 SLP104 T10171033
KGLR 250331Z AUTO 11011G18KT 070V140 10SM BKN014 OVC090 M02/M04 A2981 RMK AO2 T10221039
KGLR 250322Z AUTO 11006G18KT 10SM BKN015 OVC090 M02/M04 A2982 RMK AO2 PRESFR T10221039
KGLR 250253Z AUTO 11011G19KT 10SM FEW016 OVC090 M02/M04 A2986 RMK AO2 SLP130 T10221044 58044
KGLR 250153Z AUTO 11010G17KT 10SM OVC095 M02/M04 A2991 RMK AO2 SLP146 T10221044
KGLR 250053Z AUTO 12014G20KT 10SM OVC095 M01/M04 A2997 RMK AO2 SLP167 T10111044
KGLR 242353Z AUTO 12007KT 10SM OVC110 01/M04 A3000 RMK AO2 SLP175 T00061039 10028 20000 56024
KGLR 242253Z AUTO 09006KT 10SM SCT120 02/M04 A3000 RMK AO2 SLP176 T00171044
KGLR 242153Z AUTO VRB05KT 10SM CLR 02/M04 A3004 RMK AO2 SLP187 T00221044
KGLR 242053Z AUTO 12009KT 10SM CLR 03/M04 A3007 RMK AO2 SLP200 T00281039 56032
KGLR 241953Z AUTO VRB06KT 10SM CLR 02/M04 A3008 RMK AO2 SLP201 T00221039
KGLR 241853Z AUTO 08007KT 10SM CLR 01/M05 A3013 RMK AO2 SLP217 T00111050
KGLR 241753Z AUTO VRB05KT 10SM CLR 01/M04 A3017 RMK AO2 SLP233 T00061044 10006 21028 58017
KGLR 241704Z AUTO 06005KT 10SM SCT022 M01/M06 A3020 RMK AO2 T10111056
KGLR 241653Z AUTO 08006KT 10SM BKN022 M01/M05 A3020 RMK AO2 SLP244 T10111050
KGLR 241553Z AUTO VRB03KT 10SM OVC020 M02/M06 A3022 RMK AO2 SLP249 T10171056
KGLR 241453Z AUTO 00000KT 10SM OVC019 M03/M06 A3022 RMK AO2 SLP253 T10281061 50004
KGLR 241353Z AUTO 00000KT 10SM OVC019 M02/M06 A3023 RMK AO2 SLP253 T10221056